Time;durP1;ratioP1;P1;durP2;ratioP2;P2;SDS_P1;SDS_P2;PMS_P1;PMS_P2;Temp;Humidity;BMP_temperature;BMP_pressure;BME280_temperature;BME280_humidity;BME280_pressure;Samples;Min_cycle;Max_cycle;Signal;HPM_P1;HPM_P2
2023/01/14 00:02:06;;;;;;;22.90;12.50;;;;;;;;;;105044;1263;60224;-48
2023/01/14 00:04:33;;;;;;;17.40;9.90;;;;;;;;;;105219;1257;59539;-48
2023/01/14 00:07:01;;;;;;;27.20;10.90;;;;;;;;;;105158;1257;59801;-47
2023/01/14 00:09:29;;;;;;;22.70;11.70;;;;;;;;;;105120;1257;61240;-47
2023/01/14 00:11:56;;;;;;;18.50;11.20;;;;;;;;;;105066;1257;59774;-48
2023/01/14 00:14:24;;;;;;;16.60;10.80;;;;;;;;;;105008;1257;62443;-46
2023/01/14 00:16:51;;;;;;;16.90;11.20;;;;;;;;;;105219;1262;60452;-47
2023/01/14 00:19:18;;;;;;;15.60;9.50;;;;;;;;;;105099;1258;59624;-47
2023/01/14 00:21:45;;;;;;;22.40;11.50;;;;;;;;;;105415;1259;61503;-47
2023/01/14 00:24:12;;;;;;;18.30;10.20;;;;;;;;;;105032;1263;59641;-46
2023/01/14 00:26:39;;;;;;;21.40;10.80;;;;;;;;;;104896;1257;60817;-44
2023/01/14 00:29:08;;;;;;;22.40;10.90;;;;;;;;;;105117;1256;59635;-46
2023/01/14 00:31:35;;;;;;;16.80;11.60;;;;;;;;;;105094;1257;59647;-46
2023/01/14 00:34:01;;;;;;;18.00;9.50;;;;;;;;;;104876;1256;62425;-45
2023/01/14 00:36:28;;;;;;;18.70;10.70;;;;;;;;;;105072;1257;59706;-46
2023/01/14 00:38:55;;;;;;;18.10;8.60;;;;;;;;;;104891;1263;61838;-46
2023/01/14 00:41:23;;;;;;;21.90;11.70;;;;;;;;;;104892;1263;59714;-46
2023/01/14 00:43:53;;;;;;;17.60;10.50;;;;;;;;;;105015;1257;59630;-45
2023/01/14 00:46:21;;;;;;;21.20;10.50;;;;;;;;;;105048;1258;62706;-47
2023/01/14 00:48:48;;;;;;;20.70;9.80;;;;;;;;;;105119;1257;59707;-47
2023/01/14 00:51:15;;;;;;;22.50;12.80;;;;;;;;;;104929;1257;61946;-46
2023/01/14 00:53:42;;;;;;;22.70;12.20;;;;;;;;;;104975;1254;59809;-46
2023/01/14 00:56:09;;;;;;;23.80;11.80;;;;;;;;;;105183;1260;59603;-47
2023/01/14 00:58:35;;;;;;;21.00;11.30;;;;;;;;;;105018;1256;62398;-46
2023/01/14 01:01:02;;;;;;;18.00;11.60;;;;;;;;;;105323;1257;59695;-47
2023/01/14 01:03:29;;;;;;;23.30;10.00;;;;;;;;;;105627;1255;62255;-48
2023/01/14 01:05:56;;;;;;;18.00;11.70;;;;;;;;;;105021;1256;59651;-47
2023/01/14 01:08:24;;;;;;;20.20;10.60;;;;;;;;;;105116;1254;59711;-47
2023/01/14 01:10:52;;;;;;;18.50;11.00;;;;;;;;;;104950;1260;62410;-47
2023/01/14 01:13:19;;;;;;;23.10;12.10;;;;;;;;;;105166;1257;59571;-45
2023/01/14 01:15:45;;;;;;;20.00;10.70;;;;;;;;;;105349;1257;60810;-47
2023/01/14 01:18:12;;;;;;;21.40;10.60;;;;;;;;;;104970;1256;59621;-45
2023/01/14 01:20:39;;;;;;;23.60;9.60;;;;;;;;;;105296;1257;59615;-47
2023/01/14 01:23:08;;;;;;;17.60;9.80;;;;;;;;;;104985;1255;62308;-48
2023/01/14 01:25:35;;;;;;;18.20;9.50;;;;;;;;;;104835;1262;59672;-47
2023/01/14 01:28:03;;;;;;;15.60;9.70;;;;;;;;;;105120;1260;61876;-47
2023/01/14 01:30:29;;;;;;;18.40;9.60;;;;;;;;;;104991;1260;59768;-46
2023/01/14 01:32:56;;;;;;;20.80;10.50;;;;;;;;;;104850;1254;59612;-47
2023/01/14 01:35:23;;;;;;;17.50;10.00;;;;;;;;;;105158;1255;61646;-45
2023/01/14 01:37:50;;;;;;;22.40;11.60;;;;;;;;;;105149;1259;59663;-45
2023/01/14 01:40:17;;;;;;;19.70;11.30;;;;;;;;;;104910;1257;61742;-45
2023/01/14 01:42:56;;;;;;;22.30;11.20;;;;;;;;;;104928;1257;59789;-46
2023/01/14 01:45:42;;;;;;;17.20;10.40;;;;;;;;;;105064;1259;59535;-47
2023/01/14 01:48:17;;;;;;;20.40;11.80;;;;;;;;;;104870;1260;62458;-47
2023/01/14 01:50:44;;;;;;;18.20;9.90;;;;;;;;;;104859;1262;59733;-44
2023/01/14 01:53:11;;;;;;;19.20;10.90;;;;;;;;;;105026;1257;60509;-47
2023/01/14 01:55:38;;;;;;;20.40;10.80;;;;;;;;;;104852;1257;59639;-46
2023/01/14 01:58:05;;;;;;;21.20;10.90;;;;;;;;;;104979;1260;59624;-43
2023/01/14 02:00:31;;;;;;;19.90;9.80;;;;;;;;;;104996;1255;61196;-44
2023/01/14 02:05:33;;;;;;;18.20;9.00;;;;;;;;;;104567;1289;600532;-79
2023/01/14 02:08:00;;;;;;;19.30;10.40;;;;;;;;;;104599;1269;59043;-46
2023/01/14 02:10:46;;;;;;;19.10;10.70;;;;;;;;;;105224;1260;59108;-46
2023/01/14 02:13:12;;;;;;;17.10;10.00;;;;;;;;;;104925;1267;61392;-47
2023/01/14 02:16:11;;;;;;;21.90;12.90;;;;;;;;;;104944;1267;59024;-43
2023/01/14 02:18:45;;;;;;;24.90;12.90;;;;;;;;;;104585;1260;156185;-45
2023/01/14 02:21:20;;;;;;;22.40;12.10;;;;;;;;;;104956;1263;58985;-44
2023/01/14 02:23:53;;;;;;;21.70;11.40;;;;;;;;;;105347;1259;59134;-44
2023/01/14 02:26:31;;;;;;;21.60;12.80;;;;;;;;;;105120;1259;61873;-45
2023/01/14 02:29:05;;;;;;;20.70;12.40;;;;;;;;;;105404;1264;59234;-46
2023/01/14 02:31:52;;;;;;;24.50;12.80;;;;;;;;;;104860;1265;61984;-46
2023/01/14 02:34:21;;;;;;;22.60;13.20;;;;;;;;;;104999;1260;59545;-46
2023/01/14 02:36:53;;;;;;;23.10;13.00;;;;;;;;;;104779;1265;59687;-44
2023/01/14 02:39:39;;;;;;;23.90;12.80;;;;;;;;;;105030;1262;62462;-45
2023/01/14 02:45:03;;;;;;;22.00;11.20;;;;;;;;;;104985;1260;63309;-44
2023/01/14 02:47:30;;;;;;;17.80;10.30;;;;;;;;;;104759;1265;59623;-44
2023/01/14 02:49:57;;;;;;;18.50;10.20;;;;;;;;;;104902;1259;59728;-47
2023/01/14 02:52:25;;;;;;;16.10;9.30;;;;;;;;;;104945;1260;62483;-46
2023/01/14 02:54:53;;;;;;;16.30;9.90;;;;;;;;;;105292;1259;59711;-49
2023/01/14 02:57:29;;;;;;;13.40;8.80;;;;;;;;;;105705;1260;61954;-45
2023/01/14 02:59:56;;;;;;;17.70;10.30;;;;;;;;;;105006;1262;59568;-45
2023/01/14 03:02:29;;;;;;;13.10;8.10;;;;;;;;;;104904;1259;59741;-46
2023/01/14 03:05:08;;;;;;;16.70;9.50;;;;;;;;;;105657;1259;62433;-46
2023/01/14 03:07:38;;;;;;;11.80;7.10;;;;;;;;;;105758;1263;59621;-47
2023/01/14 03:10:21;;;;;;;15.50;7.70;;;;;;;;;;105093;1262;60783;-46
2023/01/14 03:12:49;;;;;;;9.30;5.70;;;;;;;;;;105066;1263;59581;-46
2023/01/14 03:15:22;;;;;;;10.80;7.30;;;;;;;;;;105227;1259;59859;-48
2023/01/14 03:17:58;;;;;;;8.50;5.30;;;;;;;;;;105623;1260;62298;-47
2023/01/14 03:20:26;;;;;;;8.50;5.20;;;;;;;;;;105097;1259;59595;-47
2023/01/14 03:22:52;;;;;;;9.80;6.50;;;;;;;;;;104921;1260;61810;-48
2023/01/14 03:25:21;;;;;;;8.30;5.50;;;;;;;;;;105723;1261;61304;-48
2023/01/14 03:27:49;;;;;;;9.80;7.10;;;;;;;;;;104858;1259;59712;-46
2023/01/14 03:30:18;;;;;;;8.30;4.50;;;;;;;;;;105613;1260;62526;-46
2023/01/14 03:32:46;;;;;;;13.90;7.70;;;;;;;;;;104861;1261;60012;-46
2023/01/14 03:35:15;;;;;;;12.50;6.50;;;;;;;;;;104701;1266;61858;-45
2023/01/14 03:37:48;;;;;;;11.00;5.60;;;;;;;;;;104898;1264;59697;-46
2023/01/14 03:40:14;;;;;;;12.80;8.00;;;;;;;;;;104888;1261;59776;-46
2023/01/14 03:42:45;;;;;;;15.50;7.60;;;;;;;;;;104774;1260;62476;-45
2023/01/14 03:45:14;;;;;;;10.60;5.10;;;;;;;;;;104680;1265;59728;-45
2023/01/14 03:47:41;;;;;;;9.40;5.60;;;;;;;;;;105260;1260;60346;-46
2023/01/14 03:50:08;;;;;;;12.50;6.40;;;;;;;;;;104979;1260;59666;-47
2023/01/14 03:52:41;;;;;;;12.40;6.30;;;;;;;;;;105116;1262;59549;-44
2023/01/14 03:55:20;;;;;;;13.80;8.10;;;;;;;;;;105244;1260;61248;-45
2023/01/14 03:58:07;;;;;;;14.20;6.90;;;;;;;;;;104758;1263;60145;-45
2023/01/14 04:00:36;;;;;;;13.60;7.70;;;;;;;;;;104940;1263;62418;-44
2023/01/14 04:03:03;;;;;;;15.70;7.70;;;;;;;;;;104940;1260;59595;-46
2023/01/14 04:05:30;;;;;;;13.70;8.10;;;;;;;;;;105101;1260;60400;-45
2023/01/14 04:07:57;;;;;;;13.40;7.90;;;;;;;;;;104884;1265;62702;-43
2023/01/14 04:10:23;;;;;;;13.00;7.70;;;;;;;;;;104923;1265;59476;-45
2023/01/14 04:15:35;;;;;;;10.90;6.30;;;;;;;;;;104739;1264;59862;-42
2023/01/14 04:18:02;;;;;;;11.30;6.10;;;;;;;;;;104844;1259;59642;-45
2023/01/14 04:22:49;;;;;;;11.30;6.50;;;;;;;;;;101895;1290;601894;-44
2023/01/14 04:25:16;;;;;;;11.80;7.80;;;;;;;;;;105173;1254;59163;-44
2023/01/14 04:27:42;;;;;;;14.70;8.10;;;;;;;;;;105129;1254;59072;-45
2023/01/14 04:30:09;;;;;;;11.50;7.00;;;;;;;;;;105215;1257;61407;-45
2023/01/14 04:32:36;;;;;;;16.40;9.60;;;;;;;;;;105269;1260;58985;-47
2023/01/14 04:35:03;;;;;;;16.10;9.30;;;;;;;;;;105120;1257;60672;-48
2023/01/14 04:37:29;;;;;;;16.40;9.50;;;;;;;;;;105141;1254;122603;-47
2023/01/14 04:39:56;;;;;;;12.30;8.10;;;;;;;;;;105281;1256;59000;-48
2023/01/14 04:42:26;;;;;;;14.30;8.50;;;;;;;;;;105272;1251;60514;-45
2023/01/14 04:44:56;;;;;;;11.40;6.60;;;;;;;;;;105487;1251;59046;-47
2023/01/14 04:47:23;;;;;;;12.90;7.00;;;;;;;;;;105144;1257;61818;-44
2023/01/14 04:49:50;;;;;;;12.30;7.40;;;;;;;;;;105428;1253;59718;-43
2023/01/14 04:52:16;;;;;;;8.60;4.40;;;;;;;;;;105307;1251;59621;-44
2023/01/14 04:54:43;;;;;;;11.30;6.20;;;;;;;;;;105404;1255;61374;-46
2023/01/14 04:57:10;;;;;;;11.20;5.80;;;;;;;;;;105343;1255;59695;-45
2023/01/14 04:59:36;;;;;;;5.50;4.10;;;;;;;;;;105317;1257;60761;-44
2023/01/14 05:02:03;;;;;;;9.00;4.80;;;;;;;;;;105230;1251;60665;-48
2023/01/14 05:04:33;;;;;;;10.40;6.40;;;;;;;;;;105205;1252;59888;-48
2023/01/14 05:07:02;;;;;;;8.30;5.50;;;;;;;;;;104817;1252;61038;-48
2023/01/14 05:09:29;;;;;;;13.30;7.20;;;;;;;;;;107581;1252;59026;-46
2023/01/14 05:11:56;;;;;;;7.70;3.80;;;;;;;;;;105198;1256;61005;-46
2023/01/14 05:14:23;;;;;;;8.60;5.10;;;;;;;;;;105122;1254;59688;-44
2023/01/14 05:16:49;;;;;;;6.20;3.40;;;;;;;;;;105049;1254;59724;-46
2023/01/14 05:19:16;;;;;;;9.30;5.20;;;;;;;;;;105036;1256;61400;-45
2023/01/14 05:21:43;;;;;;;8.00;5.10;;;;;;;;;;104997;1256;59605;-47
2023/01/14 05:24:09;;;;;;;6.80;4.30;;;;;;;;;;104973;1257;60865;-46
2023/01/14 05:26:36;;;;;;;8.00;4.70;;;;;;;;;;105142;1254;59724;-45
2023/01/14 05:29:03;;;;;;;8.60;5.40;;;;;;;;;;105273;1251;59112;-44
2023/01/14 05:31:29;;;;;;;14.40;7.40;;;;;;;;;;105175;1256;61063;-47
2023/01/14 05:33:57;;;;;;;9.50;5.00;;;;;;;;;;105153;1254;59787;-47
2023/01/14 05:36:24;;;;;;;7.50;4.50;;;;;;;;;;105887;1254;62471;-46
2023/01/14 05:38:51;;;;;;;10.90;5.40;;;;;;;;;;105108;1257;59685;-47
2023/01/14 05:41:17;;;;;;;8.80;4.30;;;;;;;;;;104995;1256;59850;-46
2023/01/14 05:46:29;;;;;;;5.40;3.70;;;;;;;;;;105177;1254;59646;-45
2023/01/14 05:48:56;;;;;;;10.80;5.70;;;;;;;;;;105626;1254;61763;-47
2023/01/14 05:51:26;;;;;;;11.40;5.50;;;;;;;;;;105350;1260;59733;-47
2023/01/14 05:53:53;;;;;;;8.70;4.70;;;;;;;;;;105109;1254;59622;-48
2023/01/14 05:56:19;;;;;;;11.40;5.50;;;;;;;;;;105123;1256;62539;-46
2023/01/14 05:58:46;;;;;;;10.50;5.30;;;;;;;;;;105386;1252;59859;-48
2023/01/14 06:06:48;;;;;;;10.00;5.10;;;;;;;;;;105235;1257;60448;-46
2023/01/14 06:09:16;;;;;;;10.30;6.10;;;;;;;;;;105313;1257;62774;-49
2023/01/14 06:11:46;;;;;;;11.40;5.80;;;;;;;;;;104951;1259;59719;-46
2023/01/14 06:14:12;;;;;;;10.80;5.00;;;;;;;;;;105226;1258;62382;-49
2023/01/14 06:16:39;;;;;;;12.50;6.90;;;;;;;;;;104713;1257;59724;-48
2023/01/14 06:19:09;;;;;;;11.90;6.20;;;;;;;;;;105281;1256;59736;-47
2023/01/14 06:21:36;;;;;;;10.70;5.80;;;;;;;;;;108911;1252;62897;-49
2023/01/14 06:24:03;;;;;;;13.50;6.10;;;;;;;;;;105366;1257;59678;-48
2023/01/14 06:26:31;;;;;;;9.00;5.90;;;;;;;;;;105299;1254;62339;-48
2023/01/14 06:28:58;;;;;;;15.40;8.10;;;;;;;;;;106075;1253;59618;-47
2023/01/14 06:31:25;;;;;;;11.30;6.50;;;;;;;;;;105325;1257;59496;-47
2023/01/14 06:33:51;;;;;;;15.00;7.70;;;;;;;;;;105515;1254;62532;-48
2023/01/14 06:36:18;;;;;;;14.40;7.20;;;;;;;;;;105315;1251;59976;-47
2023/01/14 06:38:45;;;;;;;12.10;6.60;;;;;;;;;;105517;1251;61671;-50
2023/01/14 06:41:12;;;;;;;15.30;7.40;;;;;;;;;;105450;1257;59727;-49
2023/01/14 06:43:41;;;;;;;16.10;8.00;;;;;;;;;;105950;1254;59659;-49
2023/01/14 06:46:09;;;;;;;15.20;8.10;;;;;;;;;;107081;1255;62318;-47
2023/01/14 06:48:36;;;;;;;15.40;7.00;;;;;;;;;;105964;1254;59740;-47
2023/01/14 06:51:07;;;;;;;17.30;7.90;;;;;;;;;;105399;1254;60699;-49
2023/01/14 06:53:33;;;;;;;15.80;7.10;;;;;;;;;;105638;1254;59679;-48
2023/01/14 06:56:01;;;;;;;14.70;6.50;;;;;;;;;;105339;1257;59618;-49
2023/01/14 06:58:28;;;;;;;17.60;7.10;;;;;;;;;;105499;1257;61391;-49
2023/01/14 07:00:56;;;;;;;16.50;7.70;;;;;;;;;;105290;1257;59819;-47
2023/01/14 07:03:23;;;;;;;12.20;7.20;;;;;;;;;;105527;1258;61620;-47
2023/01/14 07:05:49;;;;;;;16.50;7.00;;;;;;;;;;105332;1257;59627;-46
2023/01/14 07:08:16;;;;;;;14.60;6.70;;;;;;;;;;105198;1253;59622;-46
2023/01/14 07:10:43;;;;;;;14.30;7.40;;;;;;;;;;105308;1256;61142;-47
2023/01/14 07:13:10;;;;;;;12.30;5.90;;;;;;;;;;105350;1252;59544;-45
2023/01/14 07:15:37;;;;;;;15.30;7.50;;;;;;;;;;106372;1254;61454;-47
2023/01/14 07:18:03;;;;;;;13.90;6.50;;;;;;;;;;105445;1257;59792;-48
2023/01/14 07:20:30;;;;;;;13.60;7.10;;;;;;;;;;105224;1257;59680;-48
2023/01/14 07:23:00;;;;;;;16.00;7.30;;;;;;;;;;105153;1257;61452;-48
2023/01/14 07:25:26;;;;;;;15.60;7.30;;;;;;;;;;105909;1256;59599;-48
2023/01/14 07:27:53;;;;;;;13.20;7.80;;;;;;;;;;105198;1257;61959;-48
2023/01/14 07:30:20;;;;;;;17.90;7.70;;;;;;;;;;105304;1255;59608;-48
2023/01/14 07:32:47;;;;;;;18.20;7.60;;;;;;;;;;105038;1263;59611;-47
2023/01/14 07:35:13;;;;;;;18.20;8.50;;;;;;;;;;105033;1256;62212;-48
2023/01/14 07:37:40;;;;;;;17.60;7.80;;;;;;;;;;105141;1254;59657;-49
2023/01/14 07:40:07;;;;;;;17.40;7.50;;;;;;;;;;104983;1257;60812;-45
2023/01/14 07:42:34;;;;;;;18.10;7.20;;;;;;;;;;104877;1254;62621;-48
2023/01/14 07:45:01;;;;;;;18.70;8.30;;;;;;;;;;105018;1256;59627;-49
2023/01/14 07:47:28;;;;;;;18.20;8.40;;;;;;;;;;105161;1254;62748;-50
2023/01/14 07:49:54;;;;;;;15.80;7.10;;;;;;;;;;105198;1256;59640;-47
2023/01/14 07:52:21;;;;;;;23.10;9.00;;;;;;;;;;105212;1254;60438;-48
2023/01/14 07:54:48;;;;;;;23.50;8.90;;;;;;;;;;105294;1256;59727;-48
2023/01/14 07:57:14;;;;;;;20.50;8.90;;;;;;;;;;105290;1253;59695;-46
2023/01/14 07:59:41;;;;;;;28.20;13.20;;;;;;;;;;105403;1257;62388;-47
2023/01/14 08:02:10;;;;;;;22.90;10.80;;;;;;;;;;105097;1258;60275;-49
2023/01/14 08:04:37;;;;;;;16.80;8.10;;;;;;;;;;105252;1264;62107;-49
2023/01/14 08:07:07;;;;;;;21.50;8.80;;;;;;;;;;105211;1257;59711;-48
2023/01/14 08:09:34;;;;;;;18.70;8.50;;;;;;;;;;105513;1258;59808;-48
2023/01/14 08:12:01;;;;;;;16.40;7.00;;;;;;;;;;105223;1257;62752;-49
2023/01/14 08:14:28;;;;;;;16.90;6.90;;;;;;;;;;105280;1256;59803;-45
2023/01/14 08:16:54;;;;;;;21.90;8.80;;;;;;;;;;105556;1255;60746;-48
2023/01/14 08:19:21;;;;;;;20.10;8.70;;;;;;;;;;105275;1258;59717;-48
2023/01/14 08:21:48;;;;;;;24.20;8.90;;;;;;;;;;105451;1256;60016;-49
2023/01/14 08:24:14;;;;;;;18.60;8.00;;;;;;;;;;105234;1259;62743;-47
2023/01/14 08:26:41;;;;;;;23.00;10.30;;;;;;;;;;105327;1258;59791;-49
2023/01/14 08:29:08;;;;;;;15.60;7.40;;;;;;;;;;105156;1254;61781;-49
2023/01/14 08:31:40;;;;;;;18.00;7.90;;;;;;;;;;105576;1259;60398;-48
2023/01/14 08:34:07;;;;;;;22.80;9.10;;;;;;;;;;105204;1259;60402;-46
2023/01/14 08:36:34;;;;;;;20.20;9.50;;;;;;;;;;106207;1256;64123;-48
2023/01/14 08:39:01;;;;;;;17.70;7.80;;;;;;;;;;105313;1258;60554;-49
2023/01/14 08:41:28;;;;;;;21.80;8.50;;;;;;;;;;105073;1257;61530;-49
2023/01/14 08:43:56;;;;;;;18.40;9.10;;;;;;;;;;105027;1254;60433;-49
2023/01/14 08:46:23;;;;;;;21.40;9.20;;;;;;;;;;105322;1253;60434;-49
2023/01/14 08:48:50;;;;;;;20.80;9.50;;;;;;;;;;105229;1252;63316;-47
2023/01/14 08:51:16;;;;;;;19.50;8.30;;;;;;;;;;105168;1257;60635;-52
2023/01/14 08:53:43;;;;;;;23.00;10.20;;;;;;;;;;105168;1259;62067;-46
2023/01/14 08:56:11;;;;;;;21.60;8.80;;;;;;;;;;105299;1257;60471;-48
2023/01/14 08:58:38;;;;;;;21.90;8.80;;;;;;;;;;105221;1257;60727;-47
2023/01/14 09:01:06;;;;;;;19.60;8.80;;;;;;;;;;105183;1254;63241;-46
2023/01/14 09:03:35;;;;;;;24.80;10.40;;;;;;;;;;105077;1254;60523;-48
2023/01/14 09:06:03;;;;;;;26.50;10.40;;;;;;;;;;107513;1257;60728;-47
2023/01/14 09:17:05;;;;;;;29.60;11.90;;;;;;;;;;105458;1254;60664;-49
2023/01/14 09:19:45;;;;;;;25.60;12.50;;;;;;;;;;105081;1254;60625;-48
2023/01/14 09:22:13;;;;;;;25.50;10.40;;;;;;;;;;105387;1254;60416;-47
2023/01/14 09:24:39;;;;;;;27.00;10.90;;;;;;;;;;105117;1257;60402;-46
2023/01/14 09:27:06;;;;;;;26.10;11.30;;;;;;;;;;105396;1256;62233;-48
2023/01/14 09:29:33;;;;;;;24.30;11.30;;;;;;;;;;105446;1255;61057;-47
2023/01/14 09:31:59;;;;;;;26.00;10.90;;;;;;;;;;105366;1257;61948;-49
2023/01/14 09:34:27;;;;;;;20.20;9.50;;;;;;;;;;105392;1254;60470;-48
2023/01/14 09:36:54;;;;;;;28.10;11.60;;;;;;;;;;105339;1255;60504;-49
2023/01/14 09:39:21;;;;;;;23.90;10.20;;;;;;;;;;105294;1254;63257;-46
2023/01/14 09:41:49;;;;;;;27.20;12.00;;;;;;;;;;105367;1258;60431;-48
2023/01/14 09:44:16;;;;;;;28.20;13.00;;;;;;;;;;105350;1257;60715;-49
2023/01/14 09:46:42;;;;;;;28.40;13.80;;;;;;;;;;105383;1256;60584;-49
2023/01/14 09:49:09;;;;;;;30.40;13.10;;;;;;;;;;105340;1256;60498;-47
2023/01/14 09:51:36;;;;;;;33.60;13.70;;;;;;;;;;105205;1253;61828;-49
2023/01/14 09:54:18;;;;;;;26.80;12.10;;;;;;;;;;105389;1257;60536;-50
2023/01/14 09:56:47;;;;;;;27.60;12.40;;;;;;;;;;105346;1254;61995;-47
2023/01/14 09:59:17;;;;;;;27.40;13.10;;;;;;;;;;105332;1257;60338;-48
2023/01/14 10:01:46;;;;;;;28.90;13.40;;;;;;;;;;105286;1257;60562;-47
2023/01/14 10:04:13;;;;;;;21.70;9.50;;;;;;;;;;105295;1255;61928;-48
2023/01/14 10:06:41;;;;;;;23.50;10.10;;;;;;;;;;105227;1260;60427;-47
2023/01/14 10:09:12;;;;;;;17.70;9.20;;;;;;;;;;105131;1254;62248;-44
2023/01/14 10:11:42;;;;;;;15.90;8.70;;;;;;;;;;105268;1254;60504;-45
2023/01/14 10:14:13;;;;;;;19.00;8.60;;;;;;;;;;105556;1255;60568;-44
2023/01/14 10:16:47;;;;;;;15.00;6.90;;;;;;;;;;105285;1255;63339;-46
2023/01/14 10:19:18;;;;;;;13.60;7.10;;;;;;;;;;105696;1252;60532;-44
2023/01/14 10:21:49;;;;;;;14.10;6.90;;;;;;;;;;105464;1257;60675;-45
2023/01/14 10:24:16;;;;;;;9.10;5.10;;;;;;;;;;105466;1252;60607;-44
2023/01/14 10:29:16;;;;;;;11.00;6.50;;;;;;;;;;101424;1292;601343;-45
2023/01/14 10:31:47;;;;;;;13.50;7.30;;;;;;;;;;104620;1262;59503;-46
2023/01/14 10:34:14;;;;;;;12.50;6.10;;;;;;;;;;104512;1264;59247;-45
2023/01/14 10:36:41;;;;;;;16.10;8.10;;;;;;;;;;104374;1262;61481;-46
2023/01/14 10:39:10;;;;;;;13.40;7.60;;;;;;;;;;104377;1262;59639;-45
2023/01/14 10:41:49;;;;;;;13.50;6.10;;;;;;;;;;104625;1264;60735;-44
2023/01/14 10:44:23;;;;;;;11.80;6.80;;;;;;;;;;104689;1263;59090;-43
2023/01/14 10:46:53;;;;;;;12.20;6.20;;;;;;;;;;104807;1261;58982;-43
2023/01/14 10:49:33;;;;;;;14.20;6.80;;;;;;;;;;104781;1266;61461;-44
2023/01/14 10:51:59;;;;;;;15.20;7.30;;;;;;;;;;104478;1262;59049;-48
2023/01/14 10:54:27;;;;;;;16.20;6.80;;;;;;;;;;104725;1260;60179;-48
2023/01/14 10:56:54;;;;;;;13.20;7.70;;;;;;;;;;105123;1263;59709;-48
2023/01/14 10:59:41;;;;;;;13.10;6.60;;;;;;;;;;104723;1261;59660;-45
2023/01/14 11:02:28;;;;;;;15.60;7.30;;;;;;;;;;104517;1261;62169;-48
2023/01/14 11:04:54;;;;;;;13.90;8.10;;;;;;;;;;104572;1262;59881;-45
2023/01/14 11:07:26;;;;;;;14.60;8.10;;;;;;;;;;104624;1265;60837;-45
2023/01/14 11:09:53;;;;;;;13.70;7.20;;;;;;;;;;104420;1268;60215;-48
2023/01/14 11:12:27;;;;;;;16.00;8.10;;;;;;;;;;104666;1265;59801;-44
2023/01/14 11:14:54;;;;;;;16.80;8.40;;;;;;;;;;104625;1262;61343;-46
2023/01/14 11:17:21;;;;;;;19.60;9.20;;;;;;;;;;104492;1265;59781;-46
2023/01/14 11:19:48;;;;;;;14.30;7.40;;;;;;;;;;104631;1265;60834;-44
2023/01/14 11:22:15;;;;;;;13.70;5.90;;;;;;;;;;104667;1264;59723;-46
2023/01/14 11:24:45;;;;;;;11.10;5.40;;;;;;;;;;104690;1264;59754;-43
2023/01/14 11:27:24;;;;;;;9.90;5.50;;;;;;;;;;104673;1263;61210;-44
2023/01/14 11:29:52;;;;;;;11.90;6.50;;;;;;;;;;104843;1262;59722;-43
2023/01/14 11:32:21;;;;;;;10.50;6.10;;;;;;;;;;105029;1263;60525;-50
2023/01/14 11:34:49;;;;;;;12.30;6.50;;;;;;;;;;105765;1259;59665;-43
2023/01/14 11:37:20;;;;;;;9.30;4.80;;;;;;;;;;105018;1257;60387;-45
2023/01/14 11:39:51;;;;;;;10.80;5.20;;;;;;;;;;105204;1259;62153;-47
2023/01/14 11:42:37;;;;;;;12.10;6.50;;;;;;;;;;105499;1261;59733;-45
2023/01/14 11:45:04;;;;;;;8.70;4.50;;;;;;;;;;104856;1258;61869;-48
2023/01/14 11:47:30;;;;;;;9.80;5.00;;;;;;;;;;104906;1260;60399;-44
2023/01/14 11:50:20;;;;;;;10.90;4.60;;;;;;;;;;104850;1259;59729;-47
2023/01/14 11:53:08;;;;;;;9.00;4.50;;;;;;;;;;104807;1260;62243;-45
2023/01/14 11:55:36;;;;;;;10.90;5.20;;;;;;;;;;104921;1258;59808;-45
2023/01/14 11:58:16;;;;;;;12.50;6.30;;;;;;;;;;104645;1264;60715;-44
2023/01/14 12:00:45;;;;;;;9.80;5.00;;;;;;;;;;104816;1259;59669;-46
2023/01/14 12:03:14;;;;;;;9.90;4.80;;;;;;;;;;105089;1261;59735;-50
2023/01/14 12:05:41;;;;;;;10.40;5.20;;;;;;;;;;104885;1259;61256;-45
2023/01/14 12:08:12;;;;;;;10.50;5.20;;;;;;;;;;104841;1258;59767;-46
2023/01/14 12:10:42;;;;;;;11.20;5.00;;;;;;;;;;104949;1263;59871;-42
2023/01/14 12:18:42;;;;;;;14.80;8.00;;;;;;;;;;104860;1260;62316;-46
2023/01/14 12:21:08;;;;;;;14.00;7.30;;;;;;;;;;104661;1259;60135;-44
2023/01/14 12:23:40;;;;;;;12.30;6.90;;;;;;;;;;104826;1262;61814;-48
2023/01/14 12:26:21;;;;;;;15.60;6.60;;;;;;;;;;105092;1264;59903;-45
2023/01/14 12:28:50;;;;;;;14.10;6.60;;;;;;;;;;104820;1258;59632;-45
2023/01/14 12:31:38;;;;;;;12.80;6.20;;;;;;;;;;104799;1265;62416;-44
2023/01/14 12:34:11;;;;;;;15.40;6.40;;;;;;;;;;104995;1265;59629;-48
2023/01/14 12:36:41;;;;;;;26.20;11.50;;;;;;;;;;105503;1264;60841;-44
2023/01/14 12:47:26;;;;;;;12.40;6.30;;;;;;;;;;104588;1262;59811;-44
2023/01/14 12:49:52;;;;;;;10.40;5.10;;;;;;;;;;104878;1258;60827;-49
2023/01/14 12:52:26;;;;;;;11.30;5.00;;;;;;;;;;105175;1258;59737;-43
2023/01/14 12:54:53;;;;;;;10.90;5.80;;;;;;;;;;104702;1264;59671;-44
2023/01/14 12:57:21;;;;;;;13.70;6.80;;;;;;;;;;104787;1262;62342;-44
2023/01/14 12:59:51;;;;;;;12.10;6.20;;;;;;;;;;107911;1257;59019;-45
2023/01/14 13:02:20;;;;;;;15.50;7.10;;;;;;;;;;104632;1263;61971;-44
2023/01/14 13:04:48;;;;;;;14.00;7.20;;;;;;;;;;104853;1261;59637;-46
2023/01/14 13:07:35;;;;;;;14.30;7.80;;;;;;;;;;104820;1262;59611;-44
2023/01/14 13:10:03;;;;;;;14.20;7.20;;;;;;;;;;104677;1263;62612;-46
2023/01/14 13:12:33;;;;;;;14.40;7.10;;;;;;;;;;104990;1262;59636;-46
2023/01/14 13:15:03;;;;;;;17.90;7.90;;;;;;;;;;104980;1262;61842;-45
2023/01/14 13:17:37;;;;;;;17.00;7.80;;;;;;;;;;104954;1259;59680;-50
2023/01/14 13:20:19;;;;;;;15.00;7.80;;;;;;;;;;104909;1259;60630;-45
2023/01/14 13:22:50;;;;;;;18.00;8.10;;;;;;;;;;104821;1263;64360;-48
2023/01/14 13:25:20;;;;;;;14.20;6.60;;;;;;;;;;105674;1263;59603;-45
2023/01/14 13:27:47;;;;;;;16.60;7.00;;;;;;;;;;106040;1259;61779;-48
2023/01/14 13:30:17;;;;;;;13.60;6.90;;;;;;;;;;104842;1262;59631;-45
2023/01/14 13:32:50;;;;;;;14.60;7.10;;;;;;;;;;105969;1259;59766;-48
2023/01/14 13:35:17;;;;;;;38.20;16.60;;;;;;;;;;104396;1263;62218;-49
2023/01/14 13:37:44;;;;;;;25.40;11.10;;;;;;;;;;104581;1264;59629;-46
2023/01/14 13:40:15;;;;;;;44.70;19.00;;;;;;;;;;104986;1264;61870;-45
2023/01/14 13:42:42;;;;;;;46.30;22.40;;;;;;;;;;104885;1263;59762;-45
2023/01/14 13:45:22;;;;;;;33.00;16.00;;;;;;;;;;104981;1263;59665;-45
2023/01/14 13:47:49;;;;;;;31.50;16.80;;;;;;;;;;104326;1262;62526;-43
2023/01/14 13:50:19;;;;;;;46.80;23.30;;;;;;;;;;107855;1258;59772;-47
2023/01/14 13:52:47;;;;;;;48.40;24.80;;;;;;;;;;104626;1263;60830;-50
2023/01/14 13:55:27;;;;;;;44.30;20.80;;;;;;;;;;104679;1263;59627;-48
2023/01/14 13:57:54;;;;;;;40.40;23.80;;;;;;;;;;104566;1260;59735;-48
2023/01/14 14:00:29;;;;;;;29.40;14.60;;;;;;;;;;108667;1258;61284;-46
2023/01/14 14:03:16;;;;;;;28.50;15.80;;;;;;;;;;106053;1263;60021;-47
2023/01/14 14:05:44;;;;;;;25.30;11.90;;;;;;;;;;104570;1260;60593;-45
2023/01/14 14:08:11;;;;;;;24.40;12.30;;;;;;;;;;104864;1259;60012;-50
2023/01/14 14:10:41;;;;;;;25.20;11.80;;;;;;;;;;104728;1261;59667;-45
2023/01/14 14:16:16;;;;;;;26.20;13.40;;;;;;;;;;104693;1265;59831;-46
2023/01/14 14:18:48;;;;;;;37.60;15.70;;;;;;;;;;104741;1265;61946;-46
2023/01/14 14:21:17;;;;;;;31.80;15.10;;;;;;;;;;104597;1259;59788;-45
2023/01/14 14:23:45;;;;;;;30.00;14.40;;;;;;;;;;105376;1263;61070;-45
2023/01/14 14:26:12;;;;;;;32.00;14.10;;;;;;;;;;104458;1264;62313;-44
2023/01/14 14:28:40;;;;;;;30.80;15.70;;;;;;;;;;107724;1261;58402;-45
2023/01/14 14:31:08;;;;;;;33.10;14.80;;;;;;;;;;104663;1264;60925;-45
2023/01/14 14:33:38;;;;;;;31.00;14.40;;;;;;;;;;104498;1261;59697;-47
2023/01/14 14:36:14;;;;;;;34.30;15.80;;;;;;;;;;104692;1264;59721;-46
2023/01/14 14:38:48;;;;;;;28.80;14.00;;;;;;;;;;104629;1261;62433;-46
2023/01/14 14:41:17;;;;;;;32.90;15.50;;;;;;;;;;104646;1257;59786;-46
2023/01/14 14:43:47;;;;;;;27.40;14.90;;;;;;;;;;105110;1263;61509;-46
2023/01/14 14:46:21;;;;;;;30.80;15.80;;;;;;;;;;104581;1264;60622;-48
2023/01/14 14:48:48;;;;;;;30.20;14.60;;;;;;;;;;104880;1263;62156;-45
2023/01/14 14:51:17;;;;;;;30.00;16.80;;;;;;;;;;104727;1263;62177;-45
2023/01/14 14:53:44;;;;;;;30.00;13.60;;;;;;;;;;105091;1263;60501;-47
2023/01/14 14:56:12;;;;;;;33.00;15.10;;;;;;;;;;104436;1262;60601;-45
2023/01/14 14:58:38;;;;;;;29.80;14.60;;;;;;;;;;104665;1264;60576;-47
2023/01/14 15:01:05;;;;;;;28.40;14.50;;;;;;;;;;104602;1265;60542;-46
2023/01/14 15:03:33;;;;;;;29.50;13.50;;;;;;;;;;104755;1263;61549;-46
2023/01/14 15:06:01;;;;;;;30.40;13.40;;;;;;;;;;104535;1260;60525;-47
2023/01/14 15:08:29;;;;;;;28.60;13.50;;;;;;;;;;103963;1263;61811;-48
2023/01/14 15:10:56;;;;;;;27.10;13.50;;;;;;;;;;104089;1259;60516;-47
2023/01/14 15:13:26;;;;;;;28.60;14.10;;;;;;;;;;104646;1259;60550;-49